sensor_id;sensor_type;location;lat;lon;timestamp;temperature;humidity
19435;DHT22;9853;50.848;4.108;2023-06-26T00:00:28;23.10;99.90
19435;DHT22;9853;50.848;4.108;2023-06-26T00:02:29;23.00;99.90
19435;DHT22;9853;50.848;4.108;2023-06-26T00:04:46;22.90;99.90
19435;DHT22;9853;50.848;4.108;2023-06-26T00:06:47;22.60;99.90
19435;DHT22;9853;50.848;4.108;2023-06-26T00:09:00;22.70;99.90
19435;DHT22;9853;50.848;4.108;2023-06-26T00:11:03;22.60;99.90
19435;DHT22;9853;50.848;4.108;2023-06-26T00:13:06;22.60;99.90
19435;DHT22;9853;50.848;4.108;2023-06-26T00:15:10;22.60;99.90
19435;DHT22;9853;50.848;4.108;2023-06-26T00:17:39;22.60;99.90
19435;DHT22;9853;50.848;4.108;2023-06-26T00:19:42;22.70;99.90
19435;DHT22;9853;50.848;4.108;2023-06-26T00:22:24;22.80;99.90
19435;DHT22;9853;50.848;4.108;2023-06-26T00:24:27;22.80;99.90
19435;DHT22;9853;50.848;4.108;2023-06-26T00:26:36;22.70;99.90
19435;DHT22;9853;50.848;4.108;2023-06-26T00:28:52;22.60;99.90
19435;DHT22;9853;50.848;4.108;2023-06-26T00:33:40;22.50;99.90
19435;DHT22;9853;50.848;4.108;2023-06-26T00:35:44;22.40;99.90
19435;DHT22;9853;50.848;4.108;2023-06-26T00:38:30;22.40;99.90
19435;DHT22;9853;50.848;4.108;2023-06-26T00:40:42;22.40;99.90
19435;DHT22;9853;50.848;4.108;2023-06-26T00:43:12;22.40;99.90
19435;DHT22;9853;50.848;4.108;2023-06-26T00:45:24;22.20;99.90
19435;DHT22;9853;50.848;4.108;2023-06-26T00:47:26;22.20;99.90
19435;DHT22;9853;50.848;4.108;2023-06-26T00:49:51;22.20;99.90
19435;DHT22;9853;50.848;4.108;2023-06-26T00:52:53;22.40;99.90
19435;DHT22;9853;50.848;4.108;2023-06-26T00:58:32;22.40;99.90
19435;DHT22;9853;50.848;4.108;2023-06-26T01:00:36;22.20;99.90
19435;DHT22;9853;50.848;4.108;2023-06-26T01:02:37;22.20;99.90
19435;DHT22;9853;50.848;4.108;2023-06-26T01:04:49;22.40;99.90
19435;DHT22;9853;50.848;4.108;2023-06-26T01:07:10;22.40;99.90
19435;DHT22;9853;50.848;4.108;2023-06-26T01:09:16;22.20;99.90
19435;DHT22;9853;50.848;4.108;2023-06-26T01:11:22;22.20;99.90
19435;DHT22;9853;50.848;4.108;2023-06-26T01:13:26;22.30;99.90
19435;DHT22;9853;50.848;4.108;2023-06-26T01:15:35;22.20;99.90
19435;DHT22;9853;50.848;4.108;2023-06-26T01:18:11;22.10;99.90
19435;DHT22;9853;50.848;4.108;2023-06-26T01:20:36;22.10;99.90
19435;DHT22;9853;50.848;4.108;2023-06-26T01:26:28;21.80;99.90
19435;DHT22;9853;50.848;4.108;2023-06-26T01:28:45;22.00;99.90
19435;DHT22;9853;50.848;4.108;2023-06-26T01:30:58;22.10;99.90
19435;DHT22;9853;50.848;4.108;2023-06-26T01:33:00;22.00;99.90
19435;DHT22;9853;50.848;4.108;2023-06-26T01:35:05;22.00;99.90
19435;DHT22;9853;50.848;4.108;2023-06-26T01:37:09;22.00;99.90
19435;DHT22;9853;50.848;4.108;2023-06-26T01:39:15;22.00;99.90
19435;DHT22;9853;50.848;4.108;2023-06-26T01:41:24;21.80;99.90
19435;DHT22;9853;50.848;4.108;2023-06-26T01:45:54;21.60;99.90
19435;DHT22;9853;50.848;4.108;2023-06-26T01:48:40;21.70;99.90
19435;DHT22;9853;50.848;4.108;2023-06-26T01:50:36;21.60;99.90
19435;DHT22;9853;50.848;4.108;2023-06-26T01:52:49;21.50;99.90
19435;DHT22;9853;50.848;4.108;2023-06-26T01:57:26;21.40;99.90
19435;DHT22;9853;50.848;4.108;2023-06-26T01:59:33;21.20;99.90
19435;DHT22;9853;50.848;4.108;2023-06-26T02:01:42;21.20;99.90
19435;DHT22;9853;50.848;4.108;2023-06-26T02:03:45;21.10;99.90
19435;DHT22;9853;50.848;4.108;2023-06-26T02:05:49;21.10;99.90
19435;DHT22;9853;50.848;4.108;2023-06-26T02:07:52;21.10;99.90
19435;DHT22;9853;50.848;4.108;2023-06-26T02:10:12;21.10;99.90
19435;DHT22;9853;50.848;4.108;2023-06-26T02:12:37;21.30;99.90
19435;DHT22;9853;50.848;4.108;2023-06-26T02:14:59;21.30;99.90
19435;DHT22;9853;50.848;4.108;2023-06-26T02:17:16;21.10;99.90
19435;DHT22;9853;50.848;4.108;2023-06-26T02:19:20;21.00;99.90
19435;DHT22;9853;50.848;4.108;2023-06-26T02:21:22;21.10;99.90
19435;DHT22;9853;50.848;4.108;2023-06-26T02:23:25;21.10;99.90
19435;DHT22;9853;50.848;4.108;2023-06-26T02:25:29;21.30;99.90
19435;DHT22;9853;50.848;4.108;2023-06-26T02:27:43;21.30;99.90
19435;DHT22;9853;50.848;4.108;2023-06-26T02:29:46;21.30;99.90
19435;DHT22;9853;50.848;4.108;2023-06-26T02:31:50;21.10;99.90
19435;DHT22;9853;50.848;4.108;2023-06-26T02:33:57;21.10;99.90
19435;DHT22;9853;50.848;4.108;2023-06-26T02:36:10;21.00;99.90
19435;DHT22;9853;50.848;4.108;2023-06-26T02:38:45;21.00;99.90
19435;DHT22;9853;50.848;4.108;2023-06-26T02:41:31;21.10;99.90
19435;DHT22;9853;50.848;4.108;2023-06-26T02:43:32;21.00;99.90
19435;DHT22;9853;50.848;4.108;2023-06-26T02:50:28;20.60;99.90
19435;DHT22;9853;50.848;4.108;2023-06-26T02:52:48;20.60;99.90
19435;DHT22;9853;50.848;4.108;2023-06-26T02:55:05;20.60;99.90
19435;DHT22;9853;50.848;4.108;2023-06-26T03:00:38;20.40;99.90
19435;DHT22;9853;50.848;4.108;2023-06-26T03:03:04;20.30;99.90
19435;DHT22;9853;50.848;4.108;2023-06-26T03:05:06;20.30;99.90
19435;DHT22;9853;50.848;4.108;2023-06-26T03:07:09;20.40;99.90
19435;DHT22;9853;50.848;4.108;2023-06-26T03:09:11;20.40;99.90
19435;DHT22;9853;50.848;4.108;2023-06-26T03:19:37;20.40;99.90
19435;DHT22;9853;50.848;4.108;2023-06-26T03:56:16;19.80;99.90
19435;DHT22;9853;50.848;4.108;2023-06-26T04:30:03;19.50;99.90
19435;DHT22;9853;50.848;4.108;2023-06-26T05:07:44;19.70;99.90
19435;DHT22;9853;50.848;4.108;2023-06-26T05:20:23;20.00;99.90
19435;DHT22;9853;50.848;4.108;2023-06-26T05:31:53;19.90;99.90
19435;DHT22;9853;50.848;4.108;2023-06-26T05:59:20;20.20;99.90
19435;DHT22;9853;50.848;4.108;2023-06-26T06:01:52;20.20;99.90
19435;DHT22;9853;50.848;4.108;2023-06-26T06:07:15;20.50;99.90
19435;DHT22;9853;50.848;4.108;2023-06-26T06:13:54;20.50;99.90
19435;DHT22;9853;50.848;4.108;2023-06-26T06:16:36;20.50;99.90
19435;DHT22;9853;50.848;4.108;2023-06-26T06:23:04;20.90;99.90
19435;DHT22;9853;50.848;4.108;2023-06-26T06:44:41;21.30;99.90
19435;DHT22;9853;50.848;4.108;2023-06-26T06:46:59;21.30;99.90
19435;DHT22;9853;50.848;4.108;2023-06-26T06:56:44;21.10;99.90
19435;DHT22;9853;50.848;4.108;2023-06-26T06:58:54;21.50;99.90
19435;DHT22;9853;50.848;4.108;2023-06-26T07:08:45;21.80;99.90
19435;DHT22;9853;50.848;4.108;2023-06-26T07:10:46;22.00;99.90
19435;DHT22;9853;50.848;4.108;2023-06-26T07:20:34;23.80;99.90
19435;DHT22;9853;50.848;4.108;2023-06-26T07:24:54;26.20;99.90
19435;DHT22;9853;50.848;4.108;2023-06-26T07:38:06;30.40;99.90
19435;DHT22;9853;50.848;4.108;2023-06-26T07:40:30;30.70;99.90
19435;DHT22;9853;50.848;4.108;2023-06-26T07:50:52;30.40;99.90
19435;DHT22;9853;50.848;4.108;2023-06-26T08:03:17;31.90;99.90
19435;DHT22;9853;50.848;4.108;2023-06-26T08:05:20;31.40;99.90
19435;DHT22;9853;50.848;4.108;2023-06-26T08:07:24;31.70;99.90
19435;DHT22;9853;50.848;4.108;2023-06-26T08:09:29;31.70;99.90
19435;DHT22;9853;50.848;4.108;2023-06-26T08:15:26;31.30;99.90
19435;DHT22;9853;50.848;4.108;2023-06-26T08:17:26;31.20;99.90
19435;DHT22;9853;50.848;4.108;2023-06-26T08:19:44;30.70;99.90
19435;DHT22;9853;50.848;4.108;2023-06-26T08:21:45;30.20;99.90
19435;DHT22;9853;50.848;4.108;2023-06-26T08:23:49;29.80;99.90
19435;DHT22;9853;50.848;4.108;2023-06-26T08:26:15;29.40;99.90
19435;DHT22;9853;50.848;4.108;2023-06-26T08:42:25;31.50;99.90
19435;DHT22;9853;50.848;4.108;2023-06-26T08:58:26;32.00;99.90
19435;DHT22;9853;50.848;4.108;2023-06-26T09:00:30;31.60;99.90
19435;DHT22;9853;50.848;4.108;2023-06-26T09:04:54;31.70;99.90
19435;DHT22;9853;50.848;4.108;2023-06-26T09:06:56;31.50;99.90
19435;DHT22;9853;50.848;4.108;2023-06-26T09:18:26;29.30;99.90
19435;DHT22;9853;50.848;4.108;2023-06-26T09:20:29;30.20;99.90
19435;DHT22;9853;50.848;4.108;2023-06-26T09:22:41;30.40;99.90
19435;DHT22;9853;50.848;4.108;2023-06-26T09:28:00;30.80;99.90
19435;DHT22;9853;50.848;4.108;2023-06-26T09:30:02;31.10;99.90
19435;DHT22;9853;50.848;4.108;2023-06-26T09:32:03;30.70;99.90
19435;DHT22;9853;50.848;4.108;2023-06-26T09:34:04;30.60;99.90
19435;DHT22;9853;50.848;4.108;2023-06-26T09:36:07;30.50;99.90
19435;DHT22;9853;50.848;4.108;2023-06-26T09:38:13;30.20;99.90
19435;DHT22;9853;50.848;4.108;2023-06-26T09:40:28;30.50;99.90
19435;DHT22;9853;50.848;4.108;2023-06-26T09:42:29;30.90;99.90
19435;DHT22;9853;50.848;4.108;2023-06-26T09:44:31;31.30;99.90
19435;DHT22;9853;50.848;4.108;2023-06-26T09:46:32;31.10;99.90
19435;DHT22;9853;50.848;4.108;2023-06-26T09:49:18;30.60;99.90
19435;DHT22;9853;50.848;4.108;2023-06-26T09:51:25;30.20;99.90
19435;DHT22;9853;50.848;4.108;2023-06-26T09:53:26;29.40;99.90
19435;DHT22;9853;50.848;4.108;2023-06-26T09:55:27;28.20;99.90
19435;DHT22;9853;50.848;4.108;2023-06-26T09:57:27;27.70;99.90
19435;DHT22;9853;50.848;4.108;2023-06-26T09:59:34;27.50;99.90
19435;DHT22;9853;50.848;4.108;2023-06-26T10:04:53;28.70;99.90
19435;DHT22;9853;50.848;4.108;2023-06-26T10:07:21;29.20;99.90
19435;DHT22;9853;50.848;4.108;2023-06-26T10:09:42;29.70;99.90
19435;DHT22;9853;50.848;4.108;2023-06-26T10:12:02;30.00;99.90
19435;DHT22;9853;50.848;4.108;2023-06-26T10:14:07;30.40;99.90
19435;DHT22;9853;50.848;4.108;2023-06-26T10:16:09;30.50;99.90
19435;DHT22;9853;50.848;4.108;2023-06-26T10:18:12;30.50;99.90
19435;DHT22;9853;50.848;4.108;2023-06-26T10:20:14;30.60;99.90
19435;DHT22;9853;50.848;4.108;2023-06-26T10:22:17;30.30;99.90
19435;DHT22;9853;50.848;4.108;2023-06-26T10:24:20;30.90;99.90
19435;DHT22;9853;50.848;4.108;2023-06-26T10:26:21;30.80;99.90
19435;DHT22;9853;50.848;4.108;2023-06-26T10:28:23;30.30;99.90
19435;DHT22;9853;50.848;4.108;2023-06-26T10:30:28;29.80;99.90
19435;DHT22;9853;50.848;4.108;2023-06-26T10:32:29;29.70;99.90
19435;DHT22;9853;50.848;4.108;2023-06-26T10:34:30;29.40;99.90
19435;DHT22;9853;50.848;4.108;2023-06-26T10:36:31;28.80;99.90
19435;DHT22;9853;50.848;4.108;2023-06-26T10:38:51;28.70;99.90
19435;DHT22;9853;50.848;4.108;2023-06-26T10:40:52;28.10;99.90
19435;DHT22;9853;50.848;4.108;2023-06-26T10:43:06;27.50;99.90
19435;DHT22;9853;50.848;4.108;2023-06-26T10:45:18;27.60;99.90
19435;DHT22;9853;50.848;4.108;2023-06-26T10:47:37;27.70;99.90
19435;DHT22;9853;50.848;4.108;2023-06-26T10:49:40;27.60;99.90
19435;DHT22;9853;50.848;4.108;2023-06-26T10:51:48;27.30;99.90
19435;DHT22;9853;50.848;4.108;2023-06-26T10:54:00;26.90;99.90
19435;DHT22;9853;50.848;4.108;2023-06-26T10:56:03;26.40;99.90
19435;DHT22;9853;50.848;4.108;2023-06-26T10:58:04;26.50;99.90
19435;DHT22;9853;50.848;4.108;2023-06-26T11:00:09;26.30;99.90
19435;DHT22;9853;50.848;4.108;2023-06-26T11:02:14;26.30;99.90
19435;DHT22;9853;50.848;4.108;2023-06-26T11:04:16;26.10;99.90
19435;DHT22;9853;50.848;4.108;2023-06-26T11:06:20;26.30;99.90
19435;DHT22;9853;50.848;4.108;2023-06-26T11:10:50;26.40;99.90
19435;DHT22;9853;50.848;4.108;2023-06-26T11:13:04;26.10;99.90
19435;DHT22;9853;50.848;4.108;2023-06-26T11:15:16;26.00;99.90
19435;DHT22;9853;50.848;4.108;2023-06-26T11:17:18;26.10;99.90
19435;DHT22;9853;50.848;4.108;2023-06-26T11:19:20;26.00;99.90
19435;DHT22;9853;50.848;4.108;2023-06-26T11:21:21;25.70;99.90
19435;DHT22;9853;50.848;4.108;2023-06-26T11:23:23;25.50;99.90
19435;DHT22;9853;50.848;4.108;2023-06-26T11:25:25;25.60;99.90
19435;DHT22;9853;50.848;4.108;2023-06-26T11:27:37;25.70;99.90
19435;DHT22;9853;50.848;4.108;2023-06-26T11:29:38;25.70;99.90
19435;DHT22;9853;50.848;4.108;2023-06-26T11:31:47;25.60;99.90
19435;DHT22;9853;50.848;4.108;2023-06-26T11:34:02;25.60;99.90
19435;DHT22;9853;50.848;4.108;2023-06-26T11:36:09;25.60;99.90
19435;DHT22;9853;50.848;4.108;2023-06-26T11:38:10;25.50;99.90
19435;DHT22;9853;50.848;4.108;2023-06-26T11:40:20;25.70;99.90
19435;DHT22;9853;50.848;4.108;2023-06-26T11:42:22;25.90;99.90
19435;DHT22;9853;50.848;4.108;2023-06-26T11:44:22;25.90;99.90
19435;DHT22;9853;50.848;4.108;2023-06-26T11:46:23;26.00;99.90
19435;DHT22;9853;50.848;4.108;2023-06-26T11:48:25;26.00;99.90
19435;DHT22;9853;50.848;4.108;2023-06-26T11:50:26;25.90;99.90
19435;DHT22;9853;50.848;4.108;2023-06-26T11:52:27;25.90;99.90
19435;DHT22;9853;50.848;4.108;2023-06-26T11:54:29;26.00;99.90
19435;DHT22;9853;50.848;4.108;2023-06-26T11:56:31;26.00;99.90
19435;DHT22;9853;50.848;4.108;2023-06-26T11:58:31;26.00;99.90
19435;DHT22;9853;50.848;4.108;2023-06-26T12:00:32;26.20;99.90
19435;DHT22;9853;50.848;4.108;2023-06-26T12:02:33;25.80;99.90
19435;DHT22;9853;50.848;4.108;2023-06-26T12:04:42;25.90;99.90
19435;DHT22;9853;50.848;4.108;2023-06-26T12:06:47;25.90;99.90
19435;DHT22;9853;50.848;4.108;2023-06-26T12:08:48;26.00;99.90
19435;DHT22;9853;50.848;4.108;2023-06-26T12:10:50;26.20;99.90
19435;DHT22;9853;50.848;4.108;2023-06-26T12:12:50;26.30;99.90
19435;DHT22;9853;50.848;4.108;2023-06-26T12:14:52;26.50;99.90
19435;DHT22;9853;50.848;4.108;2023-06-26T12:16:53;26.80;99.90
19435;DHT22;9853;50.848;4.108;2023-06-26T12:19:04;26.80;99.90
19435;DHT22;9853;50.848;4.108;2023-06-26T12:21:05;26.90;99.90
19435;DHT22;9853;50.848;4.108;2023-06-26T12:23:12;26.90;99.90
19435;DHT22;9853;50.848;4.108;2023-06-26T12:25:16;27.20;99.90
19435;DHT22;9853;50.848;4.108;2023-06-26T12:27:21;27.20;99.90
19435;DHT22;9853;50.848;4.108;2023-06-26T12:29:31;26.70;99.90
19435;DHT22;9853;50.848;4.108;2023-06-26T12:31:33;26.20;99.90
19435;DHT22;9853;50.848;4.108;2023-06-26T12:33:40;26.00;99.90
19435;DHT22;9853;50.848;4.108;2023-06-26T12:35:40;25.70;99.90
19435;DHT22;9853;50.848;4.108;2023-06-26T12:38:17;25.60;99.90
19435;DHT22;9853;50.848;4.108;2023-06-26T12:40:46;25.60;99.90
19435;DHT22;9853;50.848;4.108;2023-06-26T12:49:16;26.40;99.90
19435;DHT22;9853;50.848;4.108;2023-06-26T12:54:53;26.60;99.90
19435;DHT22;9853;50.848;4.108;2023-06-26T12:57:15;26.70;99.90
19435;DHT22;9853;50.848;4.108;2023-06-26T13:02:10;26.40;99.90
19435;DHT22;9853;50.848;4.108;2023-06-26T13:11:38;26.50;99.90
19435;DHT22;9853;50.848;4.108;2023-06-26T13:29:09;26.70;99.90
19435;DHT22;9853;50.848;4.108;2023-06-26T13:31:10;27.00;99.90
19435;DHT22;9853;50.848;4.108;2023-06-26T13:33:26;27.00;99.90
19435;DHT22;9853;50.848;4.108;2023-06-26T13:52:40;27.50;99.90
19435;DHT22;9853;50.848;4.108;2023-06-26T14:17:52;26.50;99.90
19435;DHT22;9853;50.848;4.108;2023-06-26T14:45:28;26.00;99.90
19435;DHT22;9853;50.848;4.108;2023-06-26T14:56:30;25.20;99.90
19435;DHT22;9853;50.848;4.108;2023-06-26T15:18:35;26.40;99.90
19435;DHT22;9853;50.848;4.108;2023-06-26T15:33:30;25.90;99.90
19435;DHT22;9853;50.848;4.108;2023-06-26T15:58:33;25.80;99.90
19435;DHT22;9853;50.848;4.108;2023-06-26T22:51:54;18.50;99.90
19435;DHT22;9853;50.848;4.108;2023-06-26T23:08:59;18.20;99.90
19435;DHT22;9853;50.848;4.108;2023-06-26T23:15:26;18.10;99.90
19435;DHT22;9853;50.848;4.108;2023-06-26T23:18:37;18.10;99.90
19435;DHT22;9853;50.848;4.108;2023-06-26T23:22:25;18.10;99.90
19435;DHT22;9853;50.848;4.108;2023-06-26T23:31:32;18.00;99.90
19435;DHT22;9853;50.848;4.108;2023-06-26T23:50:52;17.80;99.90
19435;DHT22;9853;50.848;4.108;2023-06-26T23:53:27;17.70;99.90
19435;DHT22;9853;50.848;4.108;2023-06-26T23:56:23;17.70;99.90
